Time,TemperatureF,DewpointF,PressureIn,WindDirection,WindDirectionDegrees,WindSpeedMPH,WindSpeedGustMPH,Humidity,HourlyPrecipIn,Conditions,Clouds,dailyrainin,SoftwareType,DateUTC
2013-10-19 00:01:00,38.7,32.0,29.94,SSE,162,0.0,0.0,77,0.00,,,0.00,weatherlink.com 1.10,2013-10-19 07:01:00,
2013-10-19 00:16:00,37.8,31.0,29.95,SSE,162,0.0,1.0,76,0.00,,,0.00,weatherlink.com 1.10,2013-10-19 07:16:00,
2013-10-19 00:31:00,37.7,31.0,29.95,SSE,162,0.0,0.0,76,0.00,,,0.00,weatherlink.com 1.10,2013-10-19 07:31:00,
2013-10-19 00:46:00,37.0,30.0,29.95,SSE,162,0.0,0.0,77,0.00,,,0.00,weatherlink.com 1.10,2013-10-19 07:46:00,
2013-10-19 01:01:00,36.7,31.0,29.95,SSE,162,0.0,2.0,81,0.00,,,0.00,weatherlink.com 1.10,2013-10-19 08:01:00,
2013-10-19 01:16:00,36.1,31.0,29.95,SSE,162,0.0,1.0,81,0.00,,,0.00,weatherlink.com 1.10,2013-10-19 08:16:00,
2013-10-19 01:31:00,35.7,31.0,29.95,SSE,162,0.0,0.0,82,0.00,,,0.00,weatherlink.com 1.10,2013-10-19 08:31:00,
2013-10-19 01:46:00,35.5,31.0,29.95,SSE,162,0.0,1.0,83,0.00,,,0.00,weatherlink.com 1.10,2013-10-19 08:46:00,
2013-10-19 02:01:00,35.4,31.0,29.96,SSE,162,0.0,1.0,83,0.00,,,0.00,weatherlink.com 1.10,2013-10-19 09:01:00,
2013-10-19 02:16:00,34.8,30.0,29.96,SSE,162,0.0,2.0,84,0.00,,,0.00,weatherlink.com 1.10,2013-10-19 09:16:00,
2013-10-19 02:31:00,34.7,31.0,29.96,SSE,162,0.0,1.0,85,0.00,,,0.00,weatherlink.com 1.10,2013-10-19 09:31:00,
2013-10-19 02:46:00,34.2,31.0,29.96,SSE,162,0.0,1.0,86,0.00,,,0.00,weatherlink.com 1.10,2013-10-19 09:46:00,
2013-10-19 03:01:00,33.7,30.0,29.96,SSE,162,0.0,1.0,87,0.00,,,0.00,weatherlink.com 1.10,2013-10-19 10:01:00,
2013-10-19 03:16:00,33.6,30.0,29.95,SSE,162,0.0,1.0,87,0.00,,,0.00,weatherlink.com 1.10,2013-10-19 10:16:00,
2013-10-19 03:31:00,33.4,30.0,29.95,SSE,162,0.0,1.0,87,0.00,,,0.00,weatherlink.com 1.10,2013-10-19 10:31:00,
2013-10-19 03:46:00,33.2,30.0,29.95,SSE,162,0.0,1.0,88,0.00,,,0.00,weatherlink.com 1.10,2013-10-19 10:46:00,
2013-10-19 04:01:00,32.7,30.0,29.95,SSE,162,0.0,0.0,88,0.00,,,0.00,weatherlink.com 1.10,2013-10-19 11:01:00,
2013-10-19 04:16:00,32.5,30.0,29.95,SSE,162,0.0,0.0,89,0.00,,,0.00,weatherlink.com 1.10,2013-10-19 11:16:00,
2013-10-19 04:31:00,32.3,29.0,29.96,SSE,162,0.0,1.0,88,0.00,,,0.00,weatherlink.com 1.10,2013-10-19 11:31:00,
2013-10-19 04:46:00,31.8,29.0,29.96,SSE,162,0.0,0.0,89,0.00,,,0.00,weatherlink.com 1.10,2013-10-19 11:46:00,
2013-10-19 05:01:00,31.5,29.0,29.96,SSE,162,0.0,0.0,89,0.00,,,0.00,weatherlink.com 1.10,2013-10-19 12:01:00,
2013-10-19 05:16:00,31.2,29.0,29.97,SSE,162,0.0,2.0,90,0.00,,,0.00,weatherlink.com 1.10,2013-10-19 12:16:00,
2013-10-19 05:31:00,30.7,28.0,29.97,SSE,162,0.0,0.0,89,0.00,,,0.00,weatherlink.com 1.10,2013-10-19 12:31:00,
2013-10-19 05:47:00,30.3,28.0,29.97,SSE,162,0.0,2.0,90,0.00,,,0.00,weatherlink.com 1.10,2013-10-19 12:47:00,
2013-10-19 06:02:00,30.0,28.0,29.97,SSE,162,0.0,0.0,90,0.00,,,0.00,weatherlink.com 1.10,2013-10-19 13:02:00,
2013-10-19 06:17:00,29.9,28.0,29.98,SSE,162,0.0,0.0,92,0.00,,,0.00,weatherlink.com 1.10,2013-10-19 13:17:00,
2013-10-19 06:32:00,29.7,28.0,29.98,SSE,162,0.0,0.0,92,0.00,,,0.00,weatherlink.com 1.10,2013-10-19 13:32:00,
2013-10-19 06:47:00,29.4,27.0,29.98,SSE,162,0.0,0.0,91,0.00,,,0.00,weatherlink.com 1.10,2013-10-19 13:47:00,
2013-10-19 07:02:00,29.5,27.0,29.99,SSE,162,0.0,0.0,91,0.00,,,0.00,weatherlink.com 1.10,2013-10-19 14:02:00,
2013-10-19 07:17:00,29.8,28.0,29.99,SSE,162,0.0,0.0,92,0.00,,,0.00,weatherlink.com 1.10,2013-10-19 14:17:00,
2013-10-19 07:32:00,31.1,29.0,29.99,SSE,162,0.0,1.0,91,0.00,,,0.00,weatherlink.com 1.10,2013-10-19 14:32:00,
2013-10-19 07:47:00,34.1,30.0,30.00,SSE,162,0.0,1.0,83,0.00,,,0.00,weatherlink.com 1.10,2013-10-19 14:47:00,
2013-10-19 08:02:00,36.8,32.0,30.00,SSE,162,0.0,0.0,82,0.00,,,0.00,weatherlink.com 1.10,2013-10-19 15:02:00,
2013-10-19 08:17:00,40.9,35.0,30.00,SSE,162,0.0,2.0,78,0.00,,,0.00,weatherlink.com 1.10,2013-10-19 15:17:00,
2013-10-19 08:32:00,45.4,34.0,30.00,SSE,153,0.0,2.0,64,0.00,,,0.00,weatherlink.com 1.10,2013-10-19 15:32:00,
2013-10-19 08:47:00,52.1,29.0,30.00,North,355,1.0,8.0,41,0.00,,,0.00,weatherlink.com 1.10,2013-10-19 15:47:00,
2013-10-19 09:02:00,55.9,28.0,29.99,NW,320,2.0,6.0,34,0.00,,,0.00,weatherlink.com 1.10,2013-10-19 16:02:00,
2013-10-19 09:17:00,58.6,26.0,29.99,North,355,0.0,7.0,29,0.00,,,0.00,weatherlink.com 1.10,2013-10-19 16:17:00,
2013-10-19 09:32:00,60.5,26.0,29.99,NNW,336,1.0,4.0,27,0.00,,,0.00,weatherlink.com 1.10,2013-10-19 16:32:00,
2013-10-19 09:47:00,62.5,27.0,29.98,WNW,290,1.0,6.0,26,0.00,,,0.00,weatherlink.com 1.10,2013-10-19 16:47:00,
2013-10-19 10:02:00,64.0,27.0,29.97,WNW,286,1.0,5.0,25,0.00,,,0.00,weatherlink.com 1.10,2013-10-19 17:02:00,
2013-10-19 10:17:00,65.2,26.0,29.97,NW,314,2.0,4.0,23,0.00,,,0.00,weatherlink.com 1.10,2013-10-19 17:17:00,
2013-10-19 10:32:00,65.9,24.0,29.97,North,11,2.0,4.0,20,0.00,,,0.00,weatherlink.com 1.10,2013-10-19 17:32:00,
2013-10-19 10:47:00,67.6,25.0,29.96,WNW,297,4.0,4.0,20,0.00,,,0.00,weatherlink.com 1.10,2013-10-19 17:47:00,
2013-10-19 11:02:00,68.7,26.0,29.95,WNW,294,3.0,5.0,20,0.00,,,0.00,weatherlink.com 1.10,2013-10-19 18:02:00,
2013-10-19 11:18:00,69.8,23.0,29.94,North,355,1.0,3.0,17,0.00,,,0.00,weatherlink.com 1.10,2013-10-19 18:18:00,
2013-10-19 11:33:00,70.7,24.0,29.93,NNE,23,3.0,3.0,17,0.00,,,0.00,weatherlink.com 1.10,2013-10-19 18:33:00,
2013-10-19 11:48:00,71.4,24.0,29.93,NNW,332,1.0,3.0,17,0.00,,,0.00,weatherlink.com 1.10,2013-10-19 18:48:00,
2013-10-19 12:03:00,72.2,22.0,29.92,SW,222,0.0,4.0,15,0.00,,,0.00,weatherlink.com 1.10,2013-10-19 19:03:00,
2013-10-19 12:18:00,73.1,27.0,29.91,West,261,1.0,3.0,18,0.00,,,0.00,weatherlink.com 1.10,2013-10-19 19:18:00,
2013-10-19 12:33:00,74.0,30.0,29.90,WSW,238,1.0,3.0,20,0.00,,,0.00,weatherlink.com 1.10,2013-10-19 19:33:00,
2013-10-19 12:48:00,75.2,30.0,29.89,South,176,4.0,4.0,19,0.00,,,0.00,weatherlink.com 1.10,2013-10-19 19:48:00,
2013-10-19 13:03:00,75.9,23.0,29.88,ESE,110,1.0,5.0,14,0.00,,,0.00,weatherlink.com 1.10,2013-10-19 20:03:00,
2013-10-19 13:18:00,76.2,25.0,29.88,SSE,165,0.0,4.0,15,0.00,,,0.00,weatherlink.com 1.10,2013-10-19 20:18:00,
2013-10-19 13:33:00,76.6,26.0,29.86,SSE,167,0.0,3.0,15,0.00,,,0.00,weatherlink.com 1.10,2013-10-19 20:33:00,
2013-10-19 13:48:00,76.8,27.0,29.85,East,88,1.0,7.0,16,0.00,,,0.00,weatherlink.com 1.10,2013-10-19 20:48:00,
2013-10-19 14:03:00,77.1,26.0,29.85,ENE,71,1.0,3.0,15,0.00,,,0.00,weatherlink.com 1.10,2013-10-19 21:03:00,
2013-10-19 14:18:00,78.1,27.0,29.84,WNW,290,5.0,7.0,15,0.00,,,0.00,weatherlink.com 1.10,2013-10-19 21:18:00,
2013-10-19 14:33:00,78.9,24.0,29.84,NW,319,1.0,6.0,13,0.00,,,0.00,weatherlink.com 1.10,2013-10-19 21:33:00,
2013-10-19 14:48:00,79.6,28.0,29.84,WSW,238,3.0,3.0,15,0.00,,,0.00,weatherlink.com 1.10,2013-10-19 21:48:00,
2013-10-19 15:03:00,80.7,27.0,29.83,WSW,238,2.0,7.0,14,0.00,,,0.00,weatherlink.com 1.10,2013-10-19 22:03:00,
2013-10-19 15:18:00,79.9,23.0,29.82,North,360,3.0,3.0,12,0.00,,,0.00,weatherlink.com 1.10,2013-10-19 22:18:00,
2013-10-19 15:33:00,80.0,27.0,29.82,North,5,4.0,7.0,14,0.00,,,0.00,weatherlink.com 1.10,2013-10-19 22:33:00,
2013-10-19 15:48:00,79.9,27.0,29.82,North,10,2.0,3.0,14,0.00,,,0.00,weatherlink.com 1.10,2013-10-19 22:48:00,
2013-10-19 16:03:00,79.7,23.0,29.82,NW,312,0.0,6.0,12,0.00,,,0.00,weatherlink.com 1.10,2013-10-19 23:03:00,
2013-10-19 16:19:00,79.3,26.0,29.81,NW,314,0.0,1.0,14,0.00,,,0.00,weatherlink.com 1.10,2013-10-19 23:19:00,
2013-10-19 16:34:00,78.7,24.0,29.81,WNW,296,2.0,2.0,13,0.00,,,0.00,weatherlink.com 1.10,2013-10-19 23:34:00,
2013-10-19 16:49:00,77.6,21.0,29.81,West,265,2.0,5.0,12,0.00,,,0.00,weatherlink.com 1.10,2013-10-19 23:49:00,
2013-10-19 17:04:00,76.5,24.0,29.81,WNW,285,4.0,6.0,14,0.00,,,0.00,weatherlink.com 1.10,2013-10-20 00:04:00,
2013-10-19 17:19:00,74.9,29.0,29.81,WSW,248,1.0,4.0,18,0.00,,,0.00,weatherlink.com 1.10,2013-10-20 00:19:00,
2013-10-19 17:34:00,71.8,25.0,29.80,WSW,246,1.0,4.0,17,0.00,,,0.00,weatherlink.com 1.10,2013-10-20 00:34:00,
2013-10-19 17:49:00,68.6,30.0,29.81,WSW,246,0.0,1.0,24,0.00,,,0.00,weatherlink.com 1.10,2013-10-20 00:49:00,
2013-10-19 18:04:00,64.9,33.0,29.81,WSW,246,0.0,1.0,30,0.00,,,0.00,weatherlink.com 1.10,2013-10-20 01:04:00,
2013-10-19 18:19:00,61.5,32.0,29.81,WSW,246,0.0,1.0,33,0.00,,,0.00,weatherlink.com 1.10,2013-10-20 01:19:00,
2013-10-19 18:34:00,58.7,32.0,29.81,WSW,246,0.0,2.0,36,0.00,,,0.00,weatherlink.com 1.10,2013-10-20 01:34:00,
2013-10-19 18:49:00,56.4,32.0,29.82,WSW,246,0.0,2.0,39,0.00,,,0.00,weatherlink.com 1.10,2013-10-20 01:49:00,
2013-10-19 19:04:00,54.2,34.0,29.82,WNW,294,0.0,3.0,46,0.00,,,0.00,weatherlink.com 1.10,2013-10-20 02:04:00,
2013-10-19 19:19:00,52.5,33.0,29.82,WNW,294,0.0,1.0,48,0.00,,,0.00,weatherlink.com 1.10,2013-10-20 02:19:00,
2013-10-19 19:34:00,51.2,33.0,29.82,WNW,294,1.0,2.0,51,0.00,,,0.00,weatherlink.com 1.10,2013-10-20 02:34:00,
2013-10-19 19:49:00,49.8,33.0,29.83,WNW,294,0.0,2.0,53,0.00,,,0.00,weatherlink.com 1.10,2013-10-20 02:49:00,
2013-10-19 20:04:00,48.9,34.0,29.84,WNW,294,0.0,2.0,58,0.00,,,0.00,weatherlink.com 1.10,2013-10-20 03:04:00,
2013-10-19 20:19:00,47.8,33.0,29.84,WNW,294,0.0,1.0,58,0.00,,,0.00,weatherlink.com 1.10,2013-10-20 03:19:00,
2013-10-19 20:34:00,46.8,33.0,29.85,WNW,294,0.0,1.0,60,0.00,,,0.00,weatherlink.com 1.10,2013-10-20 03:34:00,
2013-10-19 20:49:00,45.9,33.0,29.86,WNW,294,0.0,1.0,62,0.00,,,0.00,weatherlink.com 1.10,2013-10-20 03:49:00,
2013-10-19 21:04:00,44.7,32.0,29.86,WNW,294,0.0,1.0,62,0.00,,,0.00,weatherlink.com 1.10,2013-10-20 04:04:00,
2013-10-19 21:19:00,44.4,34.0,29.86,WNW,290,0.0,2.0,66,0.00,,,0.00,weatherlink.com 1.10,2013-10-20 04:19:00,
2013-10-19 21:34:00,44.0,33.0,29.87,WNW,290,0.0,2.0,65,0.00,,,0.00,weatherlink.com 1.10,2013-10-20 04:34:00,
2013-10-19 21:49:00,43.3,33.0,29.87,WNW,290,1.0,1.0,68,0.00,,,0.00,weatherlink.com 1.10,2013-10-20 04:49:00,
2013-10-19 22:04:00,42.6,33.0,29.88,WNW,290,0.0,1.0,69,0.00,,,0.00,weatherlink.com 1.10,2013-10-20 05:04:00,
2013-10-19 22:19:00,41.9,33.0,29.88,WNW,290,0.0,1.0,70,0.00,,,0.00,weatherlink.com 1.10,2013-10-20 05:19:00,
2013-10-19 22:34:00,41.3,33.0,29.88,WNW,290,0.0,1.0,72,0.00,,,0.00,weatherlink.com 1.10,2013-10-20 05:34:00,
2013-10-19 22:49:00,40.8,32.0,29.88,WNW,290,0.0,1.0,71,0.00,,,0.00,weatherlink.com 1.10,2013-10-20 05:49:00,
2013-10-19 23:04:00,40.5,33.0,29.88,WNW,290,0.0,1.0,74,0.00,,,0.00,weatherlink.com 1.10,2013-10-20 06:04:00,
2013-10-19 23:19:00,39.6,32.0,29.88,WNW,290,0.0,1.0,75,0.00,,,0.00,weatherlink.com 1.10,2013-10-20 06:19:00,
2013-10-19 23:34:00,39.2,33.0,29.88,WNW,290,0.0,0.0,77,0.00,,,0.00,weatherlink.com 1.10,2013-10-20 06:34:00,
2013-10-19 23:49:00,38.8,32.0,29.88,WNW,290,0.0,1.0,77,0.00,,,0.00,weatherlink.com 1.10,2013-10-20 06:49:00,